sensor_id;sensor_type;location;lat;lon;timestamp;temperature;humidity
17128;DHT22;8679;50.842;4.322;2022-09-13T00:00:36;19.50;99.90
17128;DHT22;8679;50.842;4.322;2022-09-13T00:03:03;19.40;99.90
17128;DHT22;8679;50.842;4.322;2022-09-13T00:05:29;19.40;99.90
17128;DHT22;8679;50.842;4.322;2022-09-13T00:07:55;19.40;99.90
17128;DHT22;8679;50.842;4.322;2022-09-13T00:10:21;19.40;99.90
17128;DHT22;8679;50.842;4.322;2022-09-13T00:12:47;19.30;99.90
17128;DHT22;8679;50.842;4.322;2022-09-13T00:15:13;19.30;99.90
17128;DHT22;8679;50.842;4.322;2022-09-13T00:17:40;19.30;99.90
17128;DHT22;8679;50.842;4.322;2022-09-13T00:20:06;19.30;99.90
17128;DHT22;8679;50.842;4.322;2022-09-13T00:22:33;19.30;99.90
17128;DHT22;8679;50.842;4.322;2022-09-13T00:24:59;19.30;99.90
17128;DHT22;8679;50.842;4.322;2022-09-13T00:27:25;19.30;99.90
17128;DHT22;8679;50.842;4.322;2022-09-13T00:29:50;19.30;99.90
17128;DHT22;8679;50.842;4.322;2022-09-13T00:32:16;19.30;99.90
17128;DHT22;8679;50.842;4.322;2022-09-13T00:34:42;19.30;99.90
17128;DHT22;8679;50.842;4.322;2022-09-13T00:37:08;19.30;99.90
17128;DHT22;8679;50.842;4.322;2022-09-13T00:39:34;19.30;99.90
17128;DHT22;8679;50.842;4.322;2022-09-13T00:42:00;19.30;99.90
17128;DHT22;8679;50.842;4.322;2022-09-13T00:45:01;19.30;99.90
17128;DHT22;8679;50.842;4.322;2022-09-13T00:50:06;19.30;99.90
17128;DHT22;8679;50.842;4.322;2022-09-13T00:52:34;19.30;99.90
17128;DHT22;8679;50.842;4.322;2022-09-13T00:55:05;19.30;99.90
17128;DHT22;8679;50.842;4.322;2022-09-13T00:57:34;19.30;99.90
17128;DHT22;8679;50.842;4.322;2022-09-13T01:00:05;19.20;99.90
17128;DHT22;8679;50.842;4.322;2022-09-13T01:02:39;19.30;99.90
17128;DHT22;8679;50.842;4.322;2022-09-13T01:05:06;19.30;99.90
17128;DHT22;8679;50.842;4.322;2022-09-13T01:07:33;19.30;99.90
17128;DHT22;8679;50.842;4.322;2022-09-13T01:10:01;19.30;99.90
17128;DHT22;8679;50.842;4.322;2022-09-13T01:12:32;19.20;99.90
17128;DHT22;8679;50.842;4.322;2022-09-13T01:15:00;19.20;99.90
17128;DHT22;8679;50.842;4.322;2022-09-13T01:17:29;19.30;99.90
17128;DHT22;8679;50.842;4.322;2022-09-13T01:19:56;19.20;99.90
17128;DHT22;8679;50.842;4.322;2022-09-13T01:30:41;19.20;99.90
17128;DHT22;8679;50.842;4.322;2022-09-13T01:33:39;19.30;99.90
17128;DHT22;8679;50.842;4.322;2022-09-13T01:36:35;19.30;99.90
17128;DHT22;8679;50.842;4.322;2022-09-13T01:39:04;19.30;99.90
17128;DHT22;8679;50.842;4.322;2022-09-13T01:44:52;19.30;99.90
17128;DHT22;8679;50.842;4.322;2022-09-13T01:47:48;19.30;99.90
17128;DHT22;8679;50.842;4.322;2022-09-13T01:50:28;19.30;99.90
17128;DHT22;8679;50.842;4.322;2022-09-13T01:53:30;19.30;99.90
17128;DHT22;8679;50.842;4.322;2022-09-13T01:56:03;19.30;99.90
17128;DHT22;8679;50.842;4.322;2022-09-13T01:58:42;19.30;99.90
17128;DHT22;8679;50.842;4.322;2022-09-13T02:01:21;19.30;99.90
17128;DHT22;8679;50.842;4.322;2022-09-13T02:03:58;19.40;99.90
17128;DHT22;8679;50.842;4.322;2022-09-13T02:06:48;19.40;99.90
17128;DHT22;8679;50.842;4.322;2022-09-13T02:09:19;19.50;99.90
17128;DHT22;8679;50.842;4.322;2022-09-13T02:11:49;19.60;99.90
17128;DHT22;8679;50.842;4.322;2022-09-13T02:14:21;19.70;99.90
17128;DHT22;8679;50.842;4.322;2022-09-13T02:17:00;19.70;99.90
17128;DHT22;8679;50.842;4.322;2022-09-13T02:22:02;19.70;99.90
17128;DHT22;8679;50.842;4.322;2022-09-13T02:24:52;19.70;99.90
17128;DHT22;8679;50.842;4.322;2022-09-13T02:27:21;19.60;99.90
17128;DHT22;8679;50.842;4.322;2022-09-13T02:29:52;19.60;99.90
17128;DHT22;8679;50.842;4.322;2022-09-13T02:32:36;19.50;99.90
17128;DHT22;8679;50.842;4.322;2022-09-13T02:35:04;19.40;99.90
17128;DHT22;8679;50.842;4.322;2022-09-13T02:37:33;19.40;99.90
17128;DHT22;8679;50.842;4.322;2022-09-13T02:40:06;19.40;99.90
17128;DHT22;8679;50.842;4.322;2022-09-13T02:42:50;19.40;99.90
17128;DHT22;8679;50.842;4.322;2022-09-13T02:45:17;19.40;99.90
17128;DHT22;8679;50.842;4.322;2022-09-13T02:47:53;19.40;99.90
17128;DHT22;8679;50.842;4.322;2022-09-13T02:56:28;19.20;99.90
17128;DHT22;8679;50.842;4.322;2022-09-13T02:59:14;19.20;99.90
17128;DHT22;8679;50.842;4.322;2022-09-13T03:01:43;19.20;99.90
17128;DHT22;8679;50.842;4.322;2022-09-13T03:04:10;19.10;99.90
17128;DHT22;8679;50.842;4.322;2022-09-13T03:06:36;19.10;99.90
17128;DHT22;8679;50.842;4.322;2022-09-13T03:09:04;19.10;99.90
17128;DHT22;8679;50.842;4.322;2022-09-13T03:20:05;19.00;99.90
17128;DHT22;8679;50.842;4.322;2022-09-13T03:30:40;19.00;99.90
17128;DHT22;8679;50.842;4.322;2022-09-13T03:33:15;19.00;99.90
17128;DHT22;8679;50.842;4.322;2022-09-13T03:36:08;19.00;99.90
17128;DHT22;8679;50.842;4.322;2022-09-13T03:38:40;19.00;99.90
17128;DHT22;8679;50.842;4.322;2022-09-13T03:41:11;19.00;99.90
17128;DHT22;8679;50.842;4.322;2022-09-13T03:46:13;19.00;99.90
17128;DHT22;8679;50.842;4.322;2022-09-13T03:48:40;19.00;99.90
17128;DHT22;8679;50.842;4.322;2022-09-13T03:51:07;19.00;99.90
17128;DHT22;8679;50.842;4.322;2022-09-13T03:53:38;19.00;99.90
17128;DHT22;8679;50.842;4.322;2022-09-13T03:56:19;19.00;99.90
17128;DHT22;8679;50.842;4.322;2022-09-13T03:58:45;19.00;99.90
17128;DHT22;8679;50.842;4.322;2022-09-13T04:01:12;19.00;99.90
17128;DHT22;8679;50.842;4.322;2022-09-13T04:03:38;18.90;99.90
17128;DHT22;8679;50.842;4.322;2022-09-13T04:06:04;18.90;99.90
17128;DHT22;8679;50.842;4.322;2022-09-13T04:08:33;18.90;99.90
17128;DHT22;8679;50.842;4.322;2022-09-13T04:10:59;18.90;99.90
17128;DHT22;8679;50.842;4.322;2022-09-13T04:13:26;18.90;99.90
17128;DHT22;8679;50.842;4.322;2022-09-13T04:15:52;18.90;99.90
17128;DHT22;8679;50.842;4.322;2022-09-13T04:18:18;18.80;99.90
17128;DHT22;8679;50.842;4.322;2022-09-13T04:20:56;18.90;99.90
17128;DHT22;8679;50.842;4.322;2022-09-13T04:23:23;18.90;99.90
17128;DHT22;8679;50.842;4.322;2022-09-13T04:25:48;18.90;99.90
17128;DHT22;8679;50.842;4.322;2022-09-13T04:28:17;18.90;99.90
17128;DHT22;8679;50.842;4.322;2022-09-13T04:30:43;18.90;99.90
17128;DHT22;8679;50.842;4.322;2022-09-13T04:33:09;18.90;99.90
17128;DHT22;8679;50.842;4.322;2022-09-13T04:35:35;18.90;99.90
17128;DHT22;8679;50.842;4.322;2022-09-13T04:38:01;19.00;99.90
17128;DHT22;8679;50.842;4.322;2022-09-13T04:40:26;19.00;99.90
17128;DHT22;8679;50.842;4.322;2022-09-13T04:42:52;18.90;99.90
17128;DHT22;8679;50.842;4.322;2022-09-13T04:45:18;18.90;99.90
17128;DHT22;8679;50.842;4.322;2022-09-13T04:47:43;18.90;99.90
17128;DHT22;8679;50.842;4.322;2022-09-13T04:50:09;19.00;99.90
17128;DHT22;8679;50.842;4.322;2022-09-13T04:52:35;19.00;99.90
17128;DHT22;8679;50.842;4.322;2022-09-13T04:55:00;19.00;99.90
17128;DHT22;8679;50.842;4.322;2022-09-13T04:57:28;19.00;99.90
17128;DHT22;8679;50.842;4.322;2022-09-13T04:59:53;19.10;99.90
17128;DHT22;8679;50.842;4.322;2022-09-13T05:02:19;19.10;99.90
17128;DHT22;8679;50.842;4.322;2022-09-13T05:04:45;19.10;99.90
17128;DHT22;8679;50.842;4.322;2022-09-13T05:07:10;19.20;99.90
17128;DHT22;8679;50.842;4.322;2022-09-13T05:09:36;19.10;99.90
17128;DHT22;8679;50.842;4.322;2022-09-13T05:12:02;19.10;99.90
17128;DHT22;8679;50.842;4.322;2022-09-13T05:14:28;19.10;99.90
17128;DHT22;8679;50.842;4.322;2022-09-13T05:16:53;19.10;99.90
17128;DHT22;8679;50.842;4.322;2022-09-13T05:19:20;19.10;99.90
17128;DHT22;8679;50.842;4.322;2022-09-13T05:21:45;19.10;99.90
17128;DHT22;8679;50.842;4.322;2022-09-13T05:24:11;19.20;99.90
17128;DHT22;8679;50.842;4.322;2022-09-13T05:26:37;19.20;99.90
17128;DHT22;8679;50.842;4.322;2022-09-13T05:29:03;19.10;99.90
17128;DHT22;8679;50.842;4.322;2022-09-13T05:31:31;19.20;99.90
17128;DHT22;8679;50.842;4.322;2022-09-13T05:34:09;19.10;99.90
17128;DHT22;8679;50.842;4.322;2022-09-13T05:36:35;19.10;99.90
17128;DHT22;8679;50.842;4.322;2022-09-13T05:39:02;19.10;99.90
17128;DHT22;8679;50.842;4.322;2022-09-13T05:41:28;19.00;99.90
17128;DHT22;8679;50.842;4.322;2022-09-13T05:43:54;19.00;99.90
17128;DHT22;8679;50.842;4.322;2022-09-13T05:46:20;18.90;99.90
17128;DHT22;8679;50.842;4.322;2022-09-13T05:48:46;18.90;99.90
17128;DHT22;8679;50.842;4.322;2022-09-13T05:51:15;18.90;99.90
17128;DHT22;8679;50.842;4.322;2022-09-13T05:53:43;18.90;99.90
17128;DHT22;8679;50.842;4.322;2022-09-13T05:56:12;18.90;99.90
17128;DHT22;8679;50.842;4.322;2022-09-13T05:58:39;18.90;99.90
17128;DHT22;8679;50.842;4.322;2022-09-13T06:01:06;18.90;99.90
17128;DHT22;8679;50.842;4.322;2022-09-13T06:03:32;18.90;99.90
17128;DHT22;8679;50.842;4.322;2022-09-13T06:05:58;18.90;99.90
17128;DHT22;8679;50.842;4.322;2022-09-13T06:08:28;19.00;99.90
17128;DHT22;8679;50.842;4.322;2022-09-13T06:10:55;19.00;99.90
17128;DHT22;8679;50.842;4.322;2022-09-13T06:13:22;19.00;99.90
17128;DHT22;8679;50.842;4.322;2022-09-13T06:15:48;19.00;99.90
17128;DHT22;8679;50.842;4.322;2022-09-13T06:18:13;19.00;99.90
17128;DHT22;8679;50.842;4.322;2022-09-13T06:20:39;19.00;99.90
17128;DHT22;8679;50.842;4.322;2022-09-13T06:23:05;19.10;99.90
17128;DHT22;8679;50.842;4.322;2022-09-13T06:25:30;19.10;99.90
17128;DHT22;8679;50.842;4.322;2022-09-13T06:27:56;19.10;99.90
17128;DHT22;8679;50.842;4.322;2022-09-13T06:30:21;19.10;99.90
17128;DHT22;8679;50.842;4.322;2022-09-13T06:32:47;19.20;99.90
17128;DHT22;8679;50.842;4.322;2022-09-13T06:35:13;19.20;99.90
17128;DHT22;8679;50.842;4.322;2022-09-13T06:37:38;19.20;99.90
17128;DHT22;8679;50.842;4.322;2022-09-13T06:40:04;19.20;99.90
17128;DHT22;8679;50.842;4.322;2022-09-13T06:42:33;19.30;99.90
17128;DHT22;8679;50.842;4.322;2022-09-13T06:44:59;19.30;99.90
17128;DHT22;8679;50.842;4.322;2022-09-13T06:47:24;19.30;99.90
17128;DHT22;8679;50.842;4.322;2022-09-13T06:49:50;19.40;99.90
17128;DHT22;8679;50.842;4.322;2022-09-13T06:52:16;19.40;99.90
17128;DHT22;8679;50.842;4.322;2022-09-13T06:54:42;19.40;99.90
17128;DHT22;8679;50.842;4.322;2022-09-13T06:57:08;19.50;99.90
17128;DHT22;8679;50.842;4.322;2022-09-13T06:59:34;19.50;99.90
17128;DHT22;8679;50.842;4.322;2022-09-13T07:01:59;19.60;99.90
17128;DHT22;8679;50.842;4.322;2022-09-13T07:04:25;19.70;99.90
17128;DHT22;8679;50.842;4.322;2022-09-13T07:06:56;19.70;99.90
17128;DHT22;8679;50.842;4.322;2022-09-13T07:09:22;19.70;99.90
17128;DHT22;8679;50.842;4.322;2022-09-13T07:11:51;19.80;99.90
17128;DHT22;8679;50.842;4.322;2022-09-13T07:14:19;19.80;99.90
17128;DHT22;8679;50.842;4.322;2022-09-13T07:16:45;19.90;99.90
17128;DHT22;8679;50.842;4.322;2022-09-13T07:19:14;20.00;99.90
17128;DHT22;8679;50.842;4.322;2022-09-13T07:21:40;20.00;99.90
17128;DHT22;8679;50.842;4.322;2022-09-13T07:24:06;20.10;99.90
17128;DHT22;8679;50.842;4.322;2022-09-13T07:26:31;20.10;99.90
17128;DHT22;8679;50.842;4.322;2022-09-13T07:29:04;20.20;99.90
17128;DHT22;8679;50.842;4.322;2022-09-13T07:31:33;20.30;99.90
17128;DHT22;8679;50.842;4.322;2022-09-13T07:34:01;20.30;99.90
17128;DHT22;8679;50.842;4.322;2022-09-13T07:36:29;20.50;99.90
17128;DHT22;8679;50.842;4.322;2022-09-13T07:38:56;20.50;99.90
17128;DHT22;8679;50.842;4.322;2022-09-13T07:41:25;20.50;99.90
17128;DHT22;8679;50.842;4.322;2022-09-13T07:43:51;20.40;99.90
17128;DHT22;8679;50.842;4.322;2022-09-13T07:46:22;20.40;99.90
17128;DHT22;8679;50.842;4.322;2022-09-13T07:48:48;20.40;99.90
17128;DHT22;8679;50.842;4.322;2022-09-13T07:51:18;20.40;99.90
17128;DHT22;8679;50.842;4.322;2022-09-13T07:53:46;20.30;99.90
17128;DHT22;8679;50.842;4.322;2022-09-13T07:56:13;20.30;99.90
17128;DHT22;8679;50.842;4.322;2022-09-13T07:58:40;20.30;99.90
17128;DHT22;8679;50.842;4.322;2022-09-13T08:03:34;20.50;99.90
17128;DHT22;8679;50.842;4.322;2022-09-13T08:06:01;20.60;99.90
17128;DHT22;8679;50.842;4.322;2022-09-13T08:08:28;20.70;99.90
17128;DHT22;8679;50.842;4.322;2022-09-13T08:10:54;20.70;99.90
17128;DHT22;8679;50.842;4.322;2022-09-13T08:13:19;20.80;99.90
17128;DHT22;8679;50.842;4.322;2022-09-13T08:15:45;20.80;99.90
17128;DHT22;8679;50.842;4.322;2022-09-13T08:18:11;20.90;99.90
17128;DHT22;8679;50.842;4.322;2022-09-13T08:20:37;21.00;99.90
17128;DHT22;8679;50.842;4.322;2022-09-13T08:23:06;20.90;99.90
17128;DHT22;8679;50.842;4.322;2022-09-13T08:25:36;21.10;99.90
17128;DHT22;8679;50.842;4.322;2022-09-13T08:28:14;21.20;99.90
17128;DHT22;8679;50.842;4.322;2022-09-13T08:30:40;21.30;99.90
17128;DHT22;8679;50.842;4.322;2022-09-13T08:33:08;21.30;99.90
17128;DHT22;8679;50.842;4.322;2022-09-13T08:35:35;21.40;99.90
17128;DHT22;8679;50.842;4.322;2022-09-13T08:38:01;21.50;99.90
17128;DHT22;8679;50.842;4.322;2022-09-13T08:40:29;21.60;99.90
17128;DHT22;8679;50.842;4.322;2022-09-13T08:45:38;21.90;99.90
17128;DHT22;8679;50.842;4.322;2022-09-13T08:48:11;22.00;99.90
17128;DHT22;8679;50.842;4.322;2022-09-13T08:50:38;22.00;99.90
17128;DHT22;8679;50.842;4.322;2022-09-13T09:00:43;22.50;99.90
17128;DHT22;8679;50.842;4.322;2022-09-13T09:03:21;22.60;99.90
17128;DHT22;8679;50.842;4.322;2022-09-13T09:05:50;22.70;99.90
17128;DHT22;8679;50.842;4.322;2022-09-13T09:08:34;22.70;99.90
17128;DHT22;8679;50.842;4.322;2022-09-13T09:11:08;22.80;99.90
17128;DHT22;8679;50.842;4.322;2022-09-13T09:13:47;22.90;99.90
17128;DHT22;8679;50.842;4.322;2022-09-13T09:16:47;23.10;99.90
17128;DHT22;8679;50.842;4.322;2022-09-13T09:19:19;23.30;99.90
17128;DHT22;8679;50.842;4.322;2022-09-13T09:21:48;23.50;99.90
17128;DHT22;8679;50.842;4.322;2022-09-13T09:24:26;23.60;99.90
17128;DHT22;8679;50.842;4.322;2022-09-13T09:26:56;23.80;99.90
17128;DHT22;8679;50.842;4.322;2022-09-13T09:29:25;23.90;99.90
17128;DHT22;8679;50.842;4.322;2022-09-13T09:34:55;24.00;99.90
17128;DHT22;8679;50.842;4.322;2022-09-13T09:37:30;24.20;99.90
17128;DHT22;8679;50.842;4.322;2022-09-13T09:40:01;24.30;99.90
17128;DHT22;8679;50.842;4.322;2022-09-13T09:42:31;24.40;99.90
17128;DHT22;8679;50.842;4.322;2022-09-13T09:45:17;24.50;99.90
17128;DHT22;8679;50.842;4.322;2022-09-13T09:47:45;24.60;99.90
17128;DHT22;8679;50.842;4.322;2022-09-13T09:50:18;24.70;99.90
17128;DHT22;8679;50.842;4.322;2022-09-13T09:58:04;24.90;99.90
17128;DHT22;8679;50.842;4.322;2022-09-13T10:00:37;25.00;99.90
17128;DHT22;8679;50.842;4.322;2022-09-13T10:03:20;25.10;99.90
17128;DHT22;8679;50.842;4.322;2022-09-13T10:05:48;25.10;99.90
17128;DHT22;8679;50.842;4.322;2022-09-13T10:08:32;25.20;99.90
17128;DHT22;8679;50.842;4.322;2022-09-13T10:10:58;25.30;99.90
17128;DHT22;8679;50.842;4.322;2022-09-13T10:13:26;25.40;99.90
17128;DHT22;8679;50.842;4.322;2022-09-13T10:16:06;25.50;99.90
17128;DHT22;8679;50.842;4.322;2022-09-13T10:18:45;25.50;99.90
17128;DHT22;8679;50.842;4.322;2022-09-13T10:21:22;25.60;99.90
17128;DHT22;8679;50.842;4.322;2022-09-13T10:23:49;25.60;99.90
17128;DHT22;8679;50.842;4.322;2022-09-13T10:26:20;25.60;99.90
17128;DHT22;8679;50.842;4.322;2022-09-13T10:29:05;25.60;99.90
17128;DHT22;8679;50.842;4.322;2022-09-13T10:31:35;25.70;99.90
17128;DHT22;8679;50.842;4.322;2022-09-13T10:36:36;25.80;99.90
17128;DHT22;8679;50.842;4.322;2022-09-13T10:39:22;25.70;99.90
17128;DHT22;8679;50.842;4.322;2022-09-13T10:41:56;25.70;99.90
17128;DHT22;8679;50.842;4.322;2022-09-13T10:44:29;25.70;99.90
17128;DHT22;8679;50.842;4.322;2022-09-13T10:47:01;25.80;99.90
17128;DHT22;8679;50.842;4.322;2022-09-13T10:49:47;25.80;99.90
17128;DHT22;8679;50.842;4.322;2022-09-13T10:52:37;25.80;99.90
17128;DHT22;8679;50.842;4.322;2022-09-13T10:57:44;26.00;99.90
17128;DHT22;8679;50.842;4.322;2022-09-13T11:00:19;26.00;99.90
17128;DHT22;8679;50.842;4.322;2022-09-13T11:12:24;26.10;99.90
17128;DHT22;8679;50.842;4.322;2022-09-13T11:14:35;26.10;99.90
17128;DHT22;8679;50.842;4.322;2022-09-13T11:22:59;26.20;99.90
17128;DHT22;8679;50.842;4.322;2022-09-13T11:25:38;26.20;99.90
17128;DHT22;8679;50.842;4.322;2022-09-13T11:41:55;26.30;99.90
17128;DHT22;8679;50.842;4.322;2022-09-13T11:47:53;26.20;99.90
17128;DHT22;8679;50.842;4.322;2022-09-13T11:56:28;26.40;99.90
17128;DHT22;8679;50.842;4.322;2022-09-13T12:02:04;26.60;99.90
17128;DHT22;8679;50.842;4.322;2022-09-13T12:04:51;26.60;99.90
17128;DHT22;8679;50.842;4.322;2022-09-13T12:07:34;26.50;99.90
17128;DHT22;8679;50.842;4.322;2022-09-13T12:10:17;26.40;99.90
17128;DHT22;8679;50.842;4.322;2022-09-13T12:12:48;26.40;99.90
17128;DHT22;8679;50.842;4.322;2022-09-13T12:15:21;26.30;99.90
17128;DHT22;8679;50.842;4.322;2022-09-13T12:17:52;26.30;99.90
17128;DHT22;8679;50.842;4.322;2022-09-13T12:20:22;26.30;99.90
17128;DHT22;8679;50.842;4.322;2022-09-13T12:22:52;26.30;99.90
17128;DHT22;8679;50.842;4.322;2022-09-13T12:25:24;26.30;99.90
17128;DHT22;8679;50.842;4.322;2022-09-13T12:28:02;26.20;99.90
17128;DHT22;8679;50.842;4.322;2022-09-13T12:30:43;26.20;99.90
17128;DHT22;8679;50.842;4.322;2022-09-13T12:33:14;26.10;99.90
17128;DHT22;8679;50.842;4.322;2022-09-13T12:35:59;26.10;99.90
17128;DHT22;8679;50.842;4.322;2022-09-13T12:47:02;25.60;99.90
17128;DHT22;8679;50.842;4.322;2022-09-13T13:00:45;25.10;99.90
17128;DHT22;8679;50.842;4.322;2022-09-13T13:03:21;25.00;99.90
17128;DHT22;8679;50.842;4.322;2022-09-13T13:05:56;25.00;99.90
17128;DHT22;8679;50.842;4.322;2022-09-13T13:08:32;24.90;99.90
17128;DHT22;8679;50.842;4.322;2022-09-13T13:11:10;24.90;99.90
17128;DHT22;8679;50.842;4.322;2022-09-13T13:13:43;24.90;99.90
17128;DHT22;8679;50.842;4.322;2022-09-13T13:16:28;24.80;99.90
17128;DHT22;8679;50.842;4.322;2022-09-13T13:18:56;24.90;99.90
17128;DHT22;8679;50.842;4.322;2022-09-13T13:26:51;24.80;99.90
17128;DHT22;8679;50.842;4.322;2022-09-13T13:29:30;24.80;99.90
17128;DHT22;8679;50.842;4.322;2022-09-13T13:37:33;24.80;99.90
17128;DHT22;8679;50.842;4.322;2022-09-13T13:39:36;24.70;99.90
17128;DHT22;8679;50.842;4.322;2022-09-13T13:42:25;24.70;99.90
17128;DHT22;8679;50.842;4.322;2022-09-13T13:54:58;24.50;99.90
17128;DHT22;8679;50.842;4.322;2022-09-13T13:57:31;24.50;99.90
17128;DHT22;8679;50.842;4.322;2022-09-13T14:11:33;24.50;99.90
17128;DHT22;8679;50.842;4.322;2022-09-13T14:19:48;24.30;99.90
17128;DHT22;8679;50.842;4.322;2022-09-13T14:22:19;24.00;99.90
17128;DHT22;8679;50.842;4.322;2022-09-13T14:24:52;23.90;99.90
17128;DHT22;8679;50.842;4.322;2022-09-13T14:27:27;23.80;99.90
17128;DHT22;8679;50.842;4.322;2022-09-13T14:30:00;23.60;99.90
17128;DHT22;8679;50.842;4.322;2022-09-13T14:32:30;23.60;99.90
17128;DHT22;8679;50.842;4.322;2022-09-13T14:35:04;23.60;99.90
17128;DHT22;8679;50.842;4.322;2022-09-13T14:37:33;23.60;99.90
17128;DHT22;8679;50.842;4.322;2022-09-13T14:40:09;23.70;99.90
17128;DHT22;8679;50.842;4.322;2022-09-13T14:42:41;23.70;99.90
17128;DHT22;8679;50.842;4.322;2022-09-13T14:45:17;23.70;99.90
17128;DHT22;8679;50.842;4.322;2022-09-13T14:47:56;23.80;99.90
17128;DHT22;8679;50.842;4.322;2022-09-13T14:50:27;23.80;99.90
17128;DHT22;8679;50.842;4.322;2022-09-13T14:53:00;23.80;99.90
17128;DHT22;8679;50.842;4.322;2022-09-13T14:56:05;23.80;99.90
17128;DHT22;8679;50.842;4.322;2022-09-13T14:58:32;23.80;99.90
17128;DHT22;8679;50.842;4.322;2022-09-13T15:01:04;23.80;99.90
17128;DHT22;8679;50.842;4.322;2022-09-13T15:03:31;23.80;99.90
17128;DHT22;8679;50.842;4.322;2022-09-13T15:05:59;23.80;99.90
17128;DHT22;8679;50.842;4.322;2022-09-13T15:10:58;23.80;99.90
17128;DHT22;8679;50.842;4.322;2022-09-13T15:13:24;23.90;99.90
17128;DHT22;8679;50.842;4.322;2022-09-13T15:15:51;23.90;99.90
17128;DHT22;8679;50.842;4.322;2022-09-13T15:20:57;23.90;99.90
17128;DHT22;8679;50.842;4.322;2022-09-13T15:23:32;23.90;99.90
17128;DHT22;8679;50.842;4.322;2022-09-13T15:26:22;23.80;99.90
17128;DHT22;8679;50.842;4.322;2022-09-13T15:28:58;23.80;99.90
17128;DHT22;8679;50.842;4.322;2022-09-13T15:31:29;23.80;99.90
17128;DHT22;8679;50.842;4.322;2022-09-13T15:34:11;23.80;99.90
17128;DHT22;8679;50.842;4.322;2022-09-13T15:36:38;23.80;99.90
17128;DHT22;8679;50.842;4.322;2022-09-13T15:41:39;23.80;99.90
17128;DHT22;8679;50.842;4.322;2022-09-13T15:44:07;23.80;99.90
17128;DHT22;8679;50.842;4.322;2022-09-13T15:46:46;23.80;99.90
17128;DHT22;8679;50.842;4.322;2022-09-13T15:49:17;23.80;99.90
17128;DHT22;8679;50.842;4.322;2022-09-13T15:51:44;23.70;99.90
17128;DHT22;8679;50.842;4.322;2022-09-13T15:54:14;23.60;99.90
17128;DHT22;8679;50.842;4.322;2022-09-13T15:56:43;23.60;99.90
17128;DHT22;8679;50.842;4.322;2022-09-13T15:59:14;23.50;99.90
17128;DHT22;8679;50.842;4.322;2022-09-13T16:01:41;23.50;99.90
17128;DHT22;8679;50.842;4.322;2022-09-13T16:04:07;23.50;99.90
17128;DHT22;8679;50.842;4.322;2022-09-13T16:06:33;23.50;99.90
17128;DHT22;8679;50.842;4.322;2022-09-13T16:08:59;23.50;99.90
17128;DHT22;8679;50.842;4.322;2022-09-13T16:11:26;23.50;99.90
17128;DHT22;8679;50.842;4.322;2022-09-13T16:13:51;23.50;99.90
17128;DHT22;8679;50.842;4.322;2022-09-13T16:16:17;23.40;99.90
17128;DHT22;8679;50.842;4.322;2022-09-13T16:18:43;23.40;99.90
17128;DHT22;8679;50.842;4.322;2022-09-13T16:21:09;23.40;99.90
17128;DHT22;8679;50.842;4.322;2022-09-13T16:23:35;23.30;99.90
17128;DHT22;8679;50.842;4.322;2022-09-13T16:26:00;23.20;99.90
17128;DHT22;8679;50.842;4.322;2022-09-13T16:28:26;23.10;99.90
17128;DHT22;8679;50.842;4.322;2022-09-13T16:30:52;23.00;99.90
17128;DHT22;8679;50.842;4.322;2022-09-13T16:33:18;22.90;99.90
17128;DHT22;8679;50.842;4.322;2022-09-13T16:35:44;22.90;99.90
17128;DHT22;8679;50.842;4.322;2022-09-13T16:38:11;22.80;99.90
17128;DHT22;8679;50.842;4.322;2022-09-13T16:40:38;22.80;99.90
17128;DHT22;8679;50.842;4.322;2022-09-13T16:43:05;22.70;99.90
17128;DHT22;8679;50.842;4.322;2022-09-13T16:45:31;22.70;99.90
17128;DHT22;8679;50.842;4.322;2022-09-13T16:47:57;22.60;99.90
17128;DHT22;8679;50.842;4.322;2022-09-13T16:50:22;22.50;99.90
17128;DHT22;8679;50.842;4.322;2022-09-13T16:52:48;22.50;99.90
17128;DHT22;8679;50.842;4.322;2022-09-13T16:55:14;22.30;99.90
17128;DHT22;8679;50.842;4.322;2022-09-13T16:57:40;22.30;99.90
17128;DHT22;8679;50.842;4.322;2022-09-13T17:00:08;22.20;99.90
17128;DHT22;8679;50.842;4.322;2022-09-13T17:02:36;22.10;99.90
17128;DHT22;8679;50.842;4.322;2022-09-13T17:05:02;22.00;99.90
17128;DHT22;8679;50.842;4.322;2022-09-13T17:07:29;21.90;99.90
17128;DHT22;8679;50.842;4.322;2022-09-13T17:09:56;21.80;99.90
17128;DHT22;8679;50.842;4.322;2022-09-13T17:12:22;21.70;99.90
17128;DHT22;8679;50.842;4.322;2022-09-13T17:14:47;21.60;99.90
17128;DHT22;8679;50.842;4.322;2022-09-13T17:17:15;21.60;99.90
17128;DHT22;8679;50.842;4.322;2022-09-13T17:19:42;21.50;99.90
17128;DHT22;8679;50.842;4.322;2022-09-13T17:22:09;21.50;99.90
17128;DHT22;8679;50.842;4.322;2022-09-13T17:24:36;21.40;99.90
17128;DHT22;8679;50.842;4.322;2022-09-13T17:27:03;21.40;99.90
17128;DHT22;8679;50.842;4.322;2022-09-13T17:29:32;21.40;99.90
17128;DHT22;8679;50.842;4.322;2022-09-13T17:31:59;21.30;99.90
17128;DHT22;8679;50.842;4.322;2022-09-13T17:34:25;21.20;99.90
17128;DHT22;8679;50.842;4.322;2022-09-13T17:36:51;21.10;99.90
17128;DHT22;8679;50.842;4.322;2022-09-13T17:39:17;21.10;99.90
17128;DHT22;8679;50.842;4.322;2022-09-13T17:41:43;21.10;99.90
17128;DHT22;8679;50.842;4.322;2022-09-13T17:44:09;21.00;99.90
17128;DHT22;8679;50.842;4.322;2022-09-13T17:46:36;21.00;99.90
17128;DHT22;8679;50.842;4.322;2022-09-13T17:49:03;21.00;99.90
17128;DHT22;8679;50.842;4.322;2022-09-13T17:51:30;21.00;99.90
17128;DHT22;8679;50.842;4.322;2022-09-13T17:54:09;21.00;99.90
17128;DHT22;8679;50.842;4.322;2022-09-13T17:56:37;20.90;99.90
17128;DHT22;8679;50.842;4.322;2022-09-13T17:59:15;20.80;99.90
17128;DHT22;8679;50.842;4.322;2022-09-13T18:01:43;20.90;99.90
17128;DHT22;8679;50.842;4.322;2022-09-13T18:04:10;20.90;99.90
17128;DHT22;8679;50.842;4.322;2022-09-13T18:06:37;20.80;99.90
17128;DHT22;8679;50.842;4.322;2022-09-13T18:09:05;20.80;99.90
17128;DHT22;8679;50.842;4.322;2022-09-13T18:11:32;20.80;99.90
17128;DHT22;8679;50.842;4.322;2022-09-13T18:13:57;20.80;99.90
17128;DHT22;8679;50.842;4.322;2022-09-13T18:16:25;20.70;99.90
17128;DHT22;8679;50.842;4.322;2022-09-13T18:18:52;20.70;99.90
17128;DHT22;8679;50.842;4.322;2022-09-13T18:21:19;20.70;99.90
17128;DHT22;8679;50.842;4.322;2022-09-13T18:23:50;20.70;99.90
17128;DHT22;8679;50.842;4.322;2022-09-13T18:26:21;20.70;99.90
17128;DHT22;8679;50.842;4.322;2022-09-13T18:28:53;20.70;99.90
17128;DHT22;8679;50.842;4.322;2022-09-13T18:31:21;20.70;99.90
17128;DHT22;8679;50.842;4.322;2022-09-13T18:33:52;20.60;99.90
17128;DHT22;8679;50.842;4.322;2022-09-13T18:36:18;20.60;99.90
17128;DHT22;8679;50.842;4.322;2022-09-13T18:38:48;20.60;99.90
17128;DHT22;8679;50.842;4.322;2022-09-13T18:41:34;20.60;99.90
17128;DHT22;8679;50.842;4.322;2022-09-13T18:44:00;20.60;99.90
17128;DHT22;8679;50.842;4.322;2022-09-13T18:46:29;20.50;99.90
17128;DHT22;8679;50.842;4.322;2022-09-13T18:48:56;20.60;99.90
17128;DHT22;8679;50.842;4.322;2022-09-13T18:51:25;20.60;99.90
17128;DHT22;8679;50.842;4.322;2022-09-13T18:53:51;20.60;99.90
17128;DHT22;8679;50.842;4.322;2022-09-13T18:56:19;20.60;99.90
17128;DHT22;8679;50.842;4.322;2022-09-13T18:58:45;20.60;99.90